createdAt,value
2017-11-24T00:00:41.765Z,95368.45
2017-11-24T00:03:09.113Z,95369.98
2017-11-24T00:05:36.464Z,95372.24
2017-11-24T00:08:03.859Z,95375.45
2017-11-24T00:10:31.241Z,95366.37
2017-11-24T00:12:58.608Z,95366.00
2017-11-24T00:15:25.997Z,95364.49
2017-11-24T00:17:53.344Z,95355.42
2017-11-24T00:20:20.707Z,95353.52
2017-11-24T00:22:48.122Z,95357.10
2017-11-24T00:25:15.527Z,95361.45
2017-11-24T00:27:42.927Z,95366.02
2017-11-24T00:30:10.292Z,95364.85
2017-11-24T00:32:37.681Z,95368.83
2017-11-24T00:35:05.032Z,95371.12
2017-11-24T00:37:32.448Z,95365.25
2017-11-24T00:40:00.065Z,95374.69
2017-11-24T00:42:27.417Z,95372.98
2017-11-24T00:44:54.821Z,95366.19
2017-11-24T00:47:22.225Z,95368.06
2017-11-24T00:49:49.598Z,95372.24
2017-11-24T00:52:16.992Z,95372.98
2017-11-24T00:54:44.340Z,95371.30
2017-11-24T00:57:11.984Z,95369.78
2017-11-24T00:59:41.412Z,95377.14
2017-11-24T01:02:08.808Z,95377.52
2017-11-24T01:04:36.152Z,95372.42
2017-11-24T01:07:03.672Z,95371.27
2017-11-24T01:09:31.047Z,95368.83
2017-11-24T01:11:58.466Z,95369.39
2017-11-24T01:14:25.847Z,95370.16
2017-11-24T01:16:53.203Z,95369.59
2017-11-24T01:19:20.632Z,95365.80
2017-11-24T01:21:48.024Z,95362.41
2017-11-24T01:24:15.405Z,95363.34
2017-11-24T01:26:42.831Z,95360.13
2017-11-24T01:29:10.184Z,95355.95
2017-11-24T01:31:37.594Z,95360.13
2017-11-24T01:34:04.989Z,95362.77
2017-11-24T01:36:32.379Z,95355.20
2017-11-24T01:38:59.783Z,95366.73
2017-11-24T01:41:27.148Z,95359.17
2017-11-24T01:43:54.506Z,95356.72
2017-11-24T01:46:21.890Z,95362.39
2017-11-24T01:48:49.292Z,95355.96
2017-11-24T01:51:16.655Z,95352.74
2017-11-24T01:53:44.068Z,95356.54
2017-11-24T01:56:11.448Z,95354.06
2017-11-24T01:58:38.804Z,95356.91
2017-11-24T02:01:06.198Z,95356.70
2017-11-24T02:03:33.588Z,95359.16
2017-11-24T02:06:00.973Z,95360.29
2017-11-24T02:08:28.374Z,95357.45
2017-11-24T02:10:55.744Z,95367.09
2017-11-24T02:13:23.289Z,95365.02
2017-11-24T02:15:50.673Z,95362.38
2017-11-24T02:18:18.058Z,95362.55
2017-11-24T02:20:45.487Z,95363.31
2017-11-24T02:23:12.897Z,95370.31
2017-11-24T02:25:40.264Z,95362.36
2017-11-24T02:28:07.678Z,95367.28
2017-11-24T02:30:35.071Z,95371.25
2017-11-24T02:33:02.441Z,95370.30
2017-11-24T02:35:29.858Z,95369.53
2017-11-24T02:37:57.236Z,95372.38
2017-11-24T02:40:24.604Z,95368.61
2017-11-24T02:42:52.036Z,95368.98
2017-11-24T02:45:19.452Z,95362.91
2017-11-24T02:47:46.804Z,95369.91
2017-11-24T02:50:14.156Z,95370.30
2017-11-24T02:52:41.627Z,95367.77
2017-11-24T02:55:08.989Z,95380.30
2017-11-24T02:57:36.392Z,95373.13
2017-11-24T03:00:04.145Z,95378.59
2017-11-24T03:02:31.530Z,95382.93
2017-11-24T03:04:58.918Z,95382.93
2017-11-24T03:07:26.285Z,95381.61
2017-11-24T03:09:53.701Z,95378.19
2017-11-24T03:12:21.108Z,95377.25
2017-11-24T03:14:48.464Z,95377.42
2017-11-24T03:17:15.854Z,95379.30
2017-11-24T03:19:43.511Z,95378.36
2017-11-24T03:22:10.954Z,95376.09
2017-11-24T03:24:38.355Z,95374.77
2017-11-24T03:27:05.707Z,95370.03
2017-11-24T03:29:33.113Z,95367.59
2017-11-24T03:32:00.512Z,95370.05
2017-11-24T03:34:27.854Z,95364.56
2017-11-24T03:36:55.201Z,95363.23
2017-11-24T03:39:22.639Z,95367.20
2017-11-24T03:41:49.983Z,95365.50
2017-11-24T03:44:17.437Z,95366.05
2017-11-24T03:46:44.788Z,95364.94
2017-11-24T03:49:12.160Z,95362.84
2017-11-24T03:51:39.545Z,95362.08
2017-11-24T03:54:06.947Z,95354.91
2017-11-24T03:56:39.169Z,95358.13
2017-11-24T03:59:06.558Z,95354.89
2017-11-24T04:01:33.914Z,95355.47
2017-11-24T04:04:01.303Z,95354.72
2017-11-24T04:06:28.723Z,95356.27
2017-11-24T04:08:56.112Z,95354.23
2017-11-24T04:11:23.593Z,95349.89
2017-11-24T04:13:50.989Z,95358.20
2017-11-24T04:16:18.432Z,95351.20
2017-11-24T04:18:45.811Z,95360.13
2017-11-24T04:21:13.201Z,95365.59
2017-11-24T04:23:40.608Z,95362.22
2017-11-24T04:26:07.962Z,95363.53
2017-11-24T04:28:35.369Z,95365.80
2017-11-24T04:31:02.753Z,95370.34
2017-11-24T04:33:30.125Z,95379.62
2017-11-24T04:35:57.513Z,95382.45
2017-11-24T04:38:24.858Z,95379.22
2017-11-24T04:40:52.288Z,95390.77
2017-11-24T04:43:19.673Z,95391.70
2017-11-24T04:45:47.082Z,95397.77
2017-11-24T04:48:14.450Z,95395.89
2017-11-24T04:50:41.800Z,95392.09
2017-11-24T04:53:09.185Z,95399.48
2017-11-24T04:55:36.552Z,95383.38
2017-11-24T04:58:03.991Z,95386.61
2017-11-24T05:00:31.363Z,95384.91
2017-11-24T05:02:58.792Z,95382.08
2017-11-24T05:05:26.139Z,95381.50
2017-11-24T05:07:53.510Z,95382.83
2017-11-24T05:10:20.916Z,95382.63
2017-11-24T05:12:48.323Z,95389.25
2017-11-24T05:15:15.720Z,95380.37
2017-11-24T05:17:43.144Z,95387.17
2017-11-24T05:20:10.511Z,95385.84
2017-11-24T05:22:37.907Z,95388.88
2017-11-24T05:25:05.252Z,95386.44
2017-11-24T05:27:32.640Z,95386.41
2017-11-24T05:30:00.018Z,95383.00
2017-11-24T05:32:27.404Z,95381.89
2017-11-24T05:34:54.745Z,95386.23
2017-11-24T05:37:22.127Z,95387.95
2017-11-24T05:39:49.525Z,95386.23
2017-11-24T05:42:16.943Z,95398.75
2017-11-24T05:44:44.382Z,95404.62
2017-11-24T05:47:11.736Z,95403.10
2017-11-24T05:49:39.152Z,95394.01
2017-11-24T05:52:06.548Z,95407.05
2017-11-24T05:54:33.982Z,95417.09
2017-11-24T05:57:01.341Z,95422.56
2017-11-24T05:59:28.696Z,95428.25
2017-11-24T06:01:56.104Z,95430.52
2017-11-24T06:04:23.491Z,95429.38
2017-11-24T06:06:50.878Z,95429.56
2017-11-24T06:09:18.319Z,95432.80
2017-11-24T06:11:45.671Z,95425.98
2017-11-24T06:14:13.030Z,95425.05
2017-11-24T06:16:40.445Z,95424.65
2017-11-24T06:19:07.814Z,95419.17
2017-11-24T06:21:35.199Z,95408.95
2017-11-24T06:24:02.593Z,95416.89
2017-11-24T06:26:29.986Z,95416.12
2017-11-24T06:28:57.382Z,95424.47
2017-11-24T06:31:24.760Z,95421.41
2017-11-24T06:33:52.153Z,95408.92
2017-11-24T06:36:19.576Z,95412.33
2017-11-24T06:38:46.947Z,95404.94
2017-11-24T06:41:14.356Z,95400.58
2017-11-24T06:43:41.834Z,95398.84
2017-11-24T06:46:09.231Z,95402.64
2017-11-24T06:48:36.624Z,95402.06
2017-11-24T06:51:04.041Z,95406.77
2017-11-24T06:53:31.425Z,95396.34
2017-11-24T06:55:58.845Z,95399.56
2017-11-24T06:58:26.486Z,95403.53
2017-11-24T07:00:53.962Z,95405.63
2017-11-24T07:03:21.399Z,95413.20
2017-11-24T07:05:48.760Z,95412.19
2017-11-24T07:08:16.177Z,95413.91
2017-11-24T07:10:43.535Z,95410.66
2017-11-24T07:13:10.928Z,95413.52
2017-11-24T07:15:38.311Z,95425.03
2017-11-24T07:18:05.840Z,95426.19
2017-11-24T07:20:33.340Z,95428.66
2017-11-24T07:23:01.344Z,95432.64
2017-11-24T07:25:30.699Z,95435.12
2017-11-24T07:27:58.368Z,95437.95
2017-11-24T07:30:28.065Z,95443.25
2017-11-24T07:32:55.717Z,95439.48
2017-11-24T07:35:23.272Z,95441.92
2017-11-24T07:37:50.662Z,95450.06
2017-11-24T07:40:18.109Z,95435.50
2017-11-24T07:42:45.482Z,95447.20
2017-11-24T07:45:12.953Z,95445.48
2017-11-24T07:47:40.389Z,95444.19
2017-11-24T07:50:07.896Z,95445.87
2017-11-24T07:52:35.255Z,95436.20
2017-11-24T07:55:02.672Z,95446.60
2017-11-24T07:57:30.086Z,95436.58
2017-11-24T07:59:58.363Z,95443.39
2017-11-24T08:02:25.782Z,95448.10
2017-11-24T08:04:53.208Z,95442.63
2017-11-24T08:07:20.682Z,95451.91
2017-11-24T08:09:48.071Z,95439.38
2017-11-24T08:12:15.585Z,95443.73
2017-11-24T08:14:43.320Z,95439.76
2017-11-24T08:17:10.764Z,95432.56
2017-11-24T08:19:38.195Z,95442.23
2017-11-24T08:22:05.651Z,95439.93
2017-11-24T08:24:33.037Z,95444.47
2017-11-24T08:27:00.890Z,95442.80
2017-11-24T08:29:28.392Z,95432.61
2017-11-24T08:31:57.825Z,95442.80
2017-11-24T08:34:25.329Z,95429.77
2017-11-24T08:36:52.880Z,95433.75
2017-11-24T08:39:20.346Z,95432.01
2017-11-24T08:41:48.298Z,95432.95
2017-11-24T08:44:15.735Z,95429.56
2017-11-24T08:46:44.791Z,95433.34
2017-11-24T08:49:12.184Z,95433.51
2017-11-24T08:51:39.645Z,95432.00
2017-11-24T08:54:07.158Z,95431.62
2017-11-24T08:56:34.536Z,95434.23
2017-11-24T09:01:40.146Z,95421.34
2017-11-24T09:04:07.587Z,95420.58
2017-11-24T09:06:35.064Z,95415.45
2017-11-24T09:09:02.501Z,95422.42
2017-11-24T09:11:30.010Z,95416.55
2017-11-24T09:13:57.790Z,95404.02
2017-11-24T09:16:25.521Z,95398.14
2017-11-24T09:18:52.935Z,95404.21
2017-11-24T09:21:21.548Z,95400.96
2017-11-24T09:23:49.129Z,95393.38
2017-11-24T09:26:16.645Z,95395.05
2017-11-24T09:28:44.400Z,95391.27
2017-11-24T09:31:11.894Z,95388.02
2017-11-24T09:33:39.462Z,95389.16
2017-11-24T09:36:09.171Z,95378.36
2017-11-24T09:38:37.146Z,95377.77
2017-11-24T09:41:04.599Z,95381.55
2017-11-24T09:43:32.153Z,95376.81
2017-11-24T09:46:00.396Z,95376.80
2017-11-24T09:48:28.059Z,95374.32
2017-11-24T09:50:55.513Z,95366.13
2017-11-24T09:53:25.156Z,95372.38
2017-11-24T09:55:52.921Z,95366.50
2017-11-24T09:58:20.628Z,95360.80
2017-11-24T10:00:49.266Z,95358.48
2017-11-24T10:03:16.889Z,95353.94
2017-11-24T10:05:45.515Z,95355.81
2017-11-24T10:08:13.283Z,95350.11
2017-11-24T10:10:40.852Z,95342.70
2017-11-24T10:13:08.247Z,95339.48
2017-11-24T10:15:36.320Z,95343.07
2017-11-24T10:18:03.949Z,95342.63
2017-11-24T10:20:31.439Z,95341.05
2017-11-24T10:22:59.205Z,95332.28
2017-11-24T10:25:26.680Z,95339.62
2017-11-24T10:27:54.481Z,95335.05
2017-11-24T10:30:22.070Z,95330.88
2017-11-24T10:32:49.472Z,95326.11
2017-11-24T10:35:17.142Z,95321.49
2017-11-24T10:37:44.585Z,95322.99
2017-11-24T10:40:12.143Z,95327.51
2017-11-24T10:42:39.789Z,95324.66
2017-11-24T10:45:07.854Z,95318.53
2017-11-24T10:50:09.377Z,95321.36
2017-11-24T10:52:37.665Z,95319.84
2017-11-24T10:55:05.793Z,95322.83
2017-11-24T10:57:33.478Z,95325.64
2017-11-24T11:00:01.651Z,95317.63
2017-11-24T11:02:30.135Z,95322.33
2017-11-24T11:04:58.422Z,95314.09
2017-11-24T11:07:27.304Z,95314.06
2017-11-24T11:09:58.130Z,95319.95
2017-11-24T11:12:25.688Z,95315.18
2017-11-24T11:17:46.452Z,95311.71
2017-11-24T11:20:14.316Z,95302.27
2017-11-24T11:22:41.868Z,95301.84
2017-11-24T11:25:09.320Z,95303.31
2017-11-24T11:27:36.797Z,95303.55
2017-11-24T11:30:04.514Z,95295.78
2017-11-24T11:32:31.890Z,95292.39
2017-11-24T11:34:59.334Z,95291.23
2017-11-24T11:37:27.352Z,95296.16
2017-11-24T11:39:54.921Z,95297.30
2017-11-24T11:42:22.312Z,95302.38
2017-11-24T11:44:50.093Z,95298.73
2017-11-24T11:47:17.602Z,95297.78
2017-11-24T11:49:45.347Z,95296.61
2017-11-24T11:52:12.789Z,95299.22
2017-11-24T11:54:40.356Z,95289.61
2017-11-24T11:57:08.599Z,95288.59
2017-11-24T11:59:36.396Z,95282.58
2017-11-24T12:02:03.968Z,95286.47
2017-11-24T12:04:32.186Z,95278.05
2017-11-24T12:07:01.132Z,95278.41
2017-11-24T12:09:28.703Z,95274.13
2017-11-24T12:11:56.124Z,95277.70
2017-11-24T12:14:23.787Z,95277.25
2017-11-24T12:16:51.587Z,95267.24
2017-11-24T12:19:19.201Z,95276.84
2017-11-24T12:21:49.057Z,95265.23
2017-11-24T12:24:16.964Z,95258.16
2017-11-24T12:26:44.656Z,95268.14
2017-11-24T12:29:12.779Z,95254.33
2017-11-24T12:31:40.588Z,95251.02
2017-11-24T12:34:08.037Z,95252.70
2017-11-24T12:36:35.738Z,95251.54
2017-11-24T12:39:03.869Z,95250.97
2017-11-24T12:41:31.316Z,95254.75
2017-11-24T12:46:35.135Z,95250.04
2017-11-24T12:49:02.761Z,95254.84
2017-11-24T12:51:30.671Z,95244.23
2017-11-24T12:53:58.099Z,95242.30
2017-11-24T12:59:16.820Z,95241.52
2017-11-24T13:01:45.982Z,95251.17
2017-11-24T13:04:13.495Z,95256.14
2017-11-24T13:06:41.142Z,95253.05
2017-11-24T13:09:08.622Z,95253.27
2017-11-24T13:11:36.075Z,95259.73
2017-11-24T13:14:03.602Z,95250.31
2017-11-24T13:16:31.074Z,95250.27
2017-11-24T13:18:58.497Z,95261.08
2017-11-24T13:21:25.996Z,95263.58
2017-11-24T13:23:53.428Z,95250.62
2017-11-24T13:26:20.889Z,95256.02
2017-11-24T13:28:48.533Z,95265.88
2017-11-24T13:31:16.161Z,95253.23
2017-11-24T13:33:43.863Z,95253.64
2017-11-24T13:36:11.393Z,95257.33
2017-11-24T13:38:39.142Z,95257.47
2017-11-24T13:41:06.894Z,95255.23
2017-11-24T13:43:34.749Z,95258.47
2017-11-24T13:46:02.614Z,95253.77
2017-11-24T13:48:30.356Z,95257.52
2017-11-24T13:50:58.385Z,95251.28
2017-11-24T13:53:25.811Z,95253.77
2017-11-24T13:55:53.244Z,95246.03
2017-11-24T13:58:20.760Z,95255.26
2017-11-24T14:00:48.212Z,95258.04
2017-11-24T14:03:15.606Z,95253.14
2017-11-24T14:05:43.138Z,95262.58
2017-11-24T14:08:10.632Z,95258.66
2017-11-24T14:10:38.163Z,95261.34
2017-11-24T14:13:05.581Z,95263.58
2017-11-24T14:15:33.064Z,95258.30
2017-11-24T14:18:00.570Z,95252.84
2017-11-24T14:20:28.289Z,95259.61
2017-11-24T14:22:56.040Z,95250.79
2017-11-24T14:25:23.483Z,95265.44
2017-11-24T14:27:50.995Z,95243.27
2017-11-24T14:30:18.437Z,95258.66
2017-11-24T14:32:46.151Z,95257.34
2017-11-24T14:35:13.561Z,95260.58
2017-11-24T14:37:40.979Z,95263.62
2017-11-24T14:40:08.765Z,95257.66
2017-11-24T14:42:36.186Z,95254.80
2017-11-24T14:45:03.666Z,95266.27
2017-11-24T14:47:31.089Z,95250.98
2017-11-24T14:49:58.561Z,95268.95
2017-11-24T14:52:25.952Z,95265.78
2017-11-24T14:54:53.391Z,95271.88
2017-11-24T14:57:21.117Z,95264.50
2017-11-24T14:59:48.636Z,95263.77
2017-11-24T15:02:16.143Z,95273.20
2017-11-24T15:04:43.715Z,95272.11
2017-11-24T15:07:11.162Z,95268.90
2017-11-24T15:09:38.604Z,95268.54
2017-11-24T15:12:06.147Z,95274.79
2017-11-24T15:14:33.684Z,95277.33
2017-11-24T15:17:01.194Z,95268.39
2017-11-24T15:19:28.704Z,95269.09
2017-11-24T15:21:56.289Z,95260.55
2017-11-24T15:24:23.758Z,95271.12
2017-11-24T15:26:51.395Z,95267.22
2017-11-24T15:29:18.898Z,95277.75
2017-11-24T15:31:46.316Z,95267.74
2017-11-24T15:34:13.773Z,95278.91
2017-11-24T15:36:41.219Z,95285.55
2017-11-24T15:39:08.677Z,95286.83
2017-11-24T15:41:36.094Z,95281.70
2017-11-24T15:44:03.496Z,95282.67
2017-11-24T15:46:30.936Z,95280.98
2017-11-24T15:48:58.325Z,95286.11
2017-11-24T15:51:25.792Z,95296.95
2017-11-24T15:53:53.360Z,95288.56
2017-11-24T15:56:20.960Z,95297.00
2017-11-24T15:58:48.386Z,95294.38
2017-11-24T16:01:15.886Z,95289.60
2017-11-24T16:03:46.561Z,95293.98
2017-11-24T16:06:14.515Z,95303.45
2017-11-24T16:08:42.056Z,95302.17
2017-11-24T16:11:09.981Z,95297.06
2017-11-24T16:13:37.557Z,95298.09
2017-11-24T16:16:04.951Z,95289.59
2017-11-24T16:18:32.459Z,95290.91
2017-11-24T16:21:00.150Z,95296.36
2017-11-24T16:23:27.582Z,95294.12
2017-11-24T16:25:55.063Z,95292.30
2017-11-24T16:28:22.893Z,95295.92
2017-11-24T16:30:50.518Z,95303.67
2017-11-24T16:33:18.079Z,95303.69
2017-11-24T16:35:45.513Z,95312.60
2017-11-24T16:38:13.138Z,95316.41
2017-11-24T16:40:40.612Z,95304.39
2017-11-24T16:43:08.023Z,95318.16
2017-11-24T16:45:35.475Z,95321.56
2017-11-24T16:48:02.898Z,95315.18
2017-11-24T16:50:30.393Z,95326.22
2017-11-24T16:52:57.845Z,95317.64
2017-11-24T16:55:25.356Z,95322.22
2017-11-24T16:57:52.743Z,95318.97
2017-11-24T17:00:20.162Z,95318.97
2017-11-24T17:02:47.593Z,95312.25
2017-11-24T17:05:14.975Z,95320.80
2017-11-24T17:07:42.550Z,95327.75
2017-11-24T17:10:10.116Z,95325.89
2017-11-24T17:12:37.602Z,95333.07
2017-11-24T17:15:05.057Z,95326.67
2017-11-24T17:17:32.495Z,95325.44
2017-11-24T17:20:00.207Z,95336.19
2017-11-24T17:22:27.595Z,95331.69
2017-11-24T17:24:55.056Z,95332.06
2017-11-24T17:27:22.499Z,95328.33
2017-11-24T17:29:49.933Z,95331.77
2017-11-24T17:32:17.403Z,95314.52
2017-11-24T17:34:44.805Z,95325.14
2017-11-24T17:37:12.272Z,95326.33
2017-11-24T17:39:39.736Z,95328.05
2017-11-24T17:42:07.161Z,95318.25
2017-11-24T17:44:34.555Z,95327.50
2017-11-24T17:47:01.989Z,95321.67
2017-11-24T17:49:29.400Z,95329.65
2017-11-24T17:51:56.917Z,95324.94
2017-11-24T17:54:24.317Z,95326.06
2017-11-24T17:56:51.752Z,95326.27
2017-11-24T17:59:19.254Z,95323.27
2017-11-24T18:01:46.633Z,95328.81
2017-11-24T18:04:14.057Z,95332.27
2017-11-24T18:06:41.515Z,95343.81
2017-11-24T18:09:08.944Z,95322.10
2017-11-24T18:11:36.339Z,95338.69
2017-11-24T18:14:03.764Z,95347.81
2017-11-24T18:16:31.132Z,95341.43
2017-11-24T18:18:58.551Z,95355.02
2017-11-24T18:21:25.921Z,95342.98
2017-11-24T18:23:53.356Z,95352.81
2017-11-24T18:26:20.867Z,95357.36
2017-11-24T18:28:48.361Z,95350.20
2017-11-24T18:31:15.882Z,95357.43
2017-11-24T18:33:43.317Z,95356.11
2017-11-24T18:36:10.821Z,95363.70
2017-11-24T18:38:38.244Z,95361.06
2017-11-24T18:41:05.652Z,95369.39
2017-11-24T18:43:33.106Z,95366.92
2017-11-24T18:46:00.528Z,95359.56
2017-11-24T18:48:27.924Z,95373.20
2017-11-24T18:50:55.325Z,95370.20
2017-11-24T18:53:22.811Z,95351.91
2017-11-24T18:55:50.185Z,95374.23
2017-11-24T18:58:17.609Z,95380.65
2017-11-24T19:00:45.000Z,95383.48
2017-11-24T19:03:12.569Z,95385.80
2017-11-24T19:05:39.978Z,95391.52
2017-11-24T19:08:07.426Z,95389.09
2017-11-24T19:10:34.854Z,95397.80
2017-11-24T19:13:02.227Z,95384.75
2017-11-24T19:15:29.672Z,95394.97
2017-11-24T19:17:57.038Z,95389.31
2017-11-24T19:20:24.611Z,95392.38
2017-11-24T19:22:52.202Z,95403.89
2017-11-24T19:25:19.587Z,95404.13
2017-11-24T19:27:47.063Z,95408.66
2017-11-24T19:30:14.515Z,95406.44
2017-11-24T19:32:41.935Z,95420.27
2017-11-24T19:35:09.339Z,95422.73
2017-11-24T19:37:37.004Z,95417.45
2017-11-24T19:40:04.558Z,95422.39
2017-11-24T19:42:31.993Z,95423.72
2017-11-24T19:44:59.583Z,95423.77
2017-11-24T19:47:26.978Z,95433.78
2017-11-24T19:49:54.728Z,95431.53
2017-11-24T19:52:22.310Z,95436.84
2017-11-24T19:54:49.815Z,95430.98
2017-11-24T19:57:27.934Z,95432.48
2017-11-24T19:59:55.348Z,95440.06
2017-11-24T20:02:22.741Z,95435.18
2017-11-24T20:04:50.208Z,95435.57
2017-11-24T20:07:17.603Z,95433.11
2017-11-24T20:09:45.029Z,95436.91
2017-11-24T20:12:12.471Z,95427.84
2017-11-24T20:14:39.901Z,95429.11
2017-11-24T20:17:07.309Z,95433.30
2017-11-24T20:19:34.725Z,95426.51
2017-11-24T20:22:02.145Z,95430.66
2017-11-24T20:24:30.436Z,95429.94
2017-11-24T20:26:57.857Z,95427.63
2017-11-24T20:29:25.309Z,95421.42
2017-11-24T20:31:52.767Z,95422.88
2017-11-24T20:34:20.337Z,95399.86
2017-11-24T20:36:47.725Z,95419.50
2017-11-24T20:39:15.177Z,95421.98
2017-11-24T20:41:42.559Z,95424.27
2017-11-24T20:44:10.012Z,95412.35
2017-11-24T20:46:37.463Z,95417.84
2017-11-24T20:49:04.930Z,95418.41
2017-11-24T20:51:32.418Z,95420.32
2017-11-24T20:53:59.859Z,95414.07
2017-11-24T20:56:27.293Z,95410.87
2017-11-24T20:58:54.693Z,95414.25
2017-11-24T21:01:22.119Z,95404.80
2017-11-24T21:03:49.576Z,95412.75
2017-11-24T21:06:16.958Z,95411.25
2017-11-24T21:08:44.379Z,95409.55
2017-11-24T21:11:11.744Z,95408.98
2017-11-24T21:13:39.136Z,95412.77
2017-11-24T21:16:06.573Z,95397.83
2017-11-24T21:18:34.004Z,95404.63
2017-11-24T21:21:01.500Z,95398.59
2017-11-24T21:23:28.892Z,95398.55
2017-11-24T21:25:56.309Z,95409.77
2017-11-24T21:28:23.736Z,95407.67
2017-11-24T21:30:51.212Z,95411.27
2017-11-24T21:33:18.703Z,95403.70
2017-11-24T21:35:46.120Z,95409.95
2017-11-24T21:38:13.515Z,95406.18
2017-11-24T21:40:40.998Z,95413.20
2017-11-24T21:43:08.406Z,95416.41
2017-11-24T21:45:35.798Z,95417.74
2017-11-24T21:48:03.219Z,95418.69
2017-11-24T21:50:30.625Z,95418.34
2017-11-24T21:52:58.088Z,95420.05
2017-11-24T21:55:25.457Z,95420.44
2017-11-24T21:57:52.864Z,95430.13
2017-11-24T22:00:20.288Z,95435.40
2017-11-24T22:02:47.674Z,95427.47
2017-11-24T22:05:15.096Z,95428.59
2017-11-24T22:07:42.493Z,95431.23
2017-11-24T22:10:09.981Z,95425.55
2017-11-24T22:12:37.385Z,95420.84
2017-11-24T22:15:04.826Z,95422.94
2017-11-24T22:17:32.210Z,95420.84
2017-11-24T22:19:59.686Z,95426.88
2017-11-24T22:22:27.075Z,95424.64
2017-11-24T22:24:54.460Z,95421.79
2017-11-24T22:27:21.902Z,95427.09
2017-11-24T22:29:49.327Z,95422.35
2017-11-24T22:32:16.707Z,95419.91
2017-11-24T22:34:44.130Z,95412.89
2017-11-24T22:37:11.572Z,95421.02
2017-11-24T22:39:38.964Z,95420.44
2017-11-24T22:42:06.397Z,95423.69
2017-11-24T22:44:33.786Z,95420.66
2017-11-24T22:47:01.233Z,95414.99
2017-11-24T22:49:28.625Z,95420.47
2017-11-24T22:51:56.104Z,95415.17
2017-11-24T22:54:23.484Z,95402.12
2017-11-24T22:56:50.904Z,95405.92
2017-11-24T22:59:18.304Z,95411.58
2017-11-24T23:01:45.716Z,95415.00
2017-11-24T23:04:13.183Z,95422.19
2017-11-24T23:06:40.591Z,95414.80
2017-11-24T23:09:08.000Z,95423.48
2017-11-24T23:11:35.374Z,95421.98
2017-11-24T23:14:02.789Z,95418.03
2017-11-24T23:16:30.225Z,95411.63
2017-11-24T23:18:57.600Z,95426.95
2017-11-24T23:21:25.012Z,95420.91
2017-11-24T23:23:52.473Z,95422.23
2017-11-24T23:26:19.928Z,95429.99
2017-11-24T23:28:47.330Z,95433.03
2017-11-24T23:31:14.735Z,95425.24
2017-11-24T23:33:42.149Z,95425.28
2017-11-24T23:36:09.542Z,95423.58
2017-11-24T23:38:36.948Z,95422.81
2017-11-24T23:41:04.358Z,95423.39
2017-11-24T23:43:31.774Z,95426.23
2017-11-24T23:45:59.148Z,95430.98
2017-11-24T23:48:26.519Z,95433.06
2017-11-24T23:50:53.936Z,95427.00
2017-11-24T23:53:21.316Z,95430.59
2017-11-24T23:55:48.723Z,95424.35
2017-11-24T23:58:16.094Z,95430.25
